sensor_id;sensor_type;location;lat;lon;timestamp;pressure;altitude;pressure_sealevel;temperature;humidity
6565;BME280;3316;44.118;27.258;2023-01-30T00:01:34;101666.88;;;1.31;100.00
6565;BME280;3316;44.118;27.258;2023-01-30T00:04:00;101666.75;;;1.28;100.00
6565;BME280;3316;44.118;27.258;2023-01-30T00:06:25;101651.94;;;1.25;100.00
6565;BME280;3316;44.118;27.258;2023-01-30T00:08:51;101649.34;;;1.25;100.00
6565;BME280;3316;44.118;27.258;2023-01-30T00:11:18;101658.28;;;1.32;100.00
6565;BME280;3316;44.118;27.258;2023-01-30T00:13:45;101652.47;;;1.37;100.00
6565;BME280;3316;44.118;27.258;2023-01-30T00:16:11;101658.28;;;1.52;100.00
6565;BME280;3316;44.118;27.258;2023-01-30T00:18:38;101675.38;;;1.47;100.00
6565;BME280;3316;44.118;27.258;2023-01-30T00:21:06;101663.56;;;1.54;100.00
6565;BME280;3316;44.118;27.258;2023-01-30T00:23:33;101668.13;;;1.59;100.00
6565;BME280;3316;44.118;27.258;2023-01-30T00:25:59;101669.81;;;1.59;100.00
6565;BME280;3316;44.118;27.258;2023-01-30T00:28:24;101670.09;;;1.65;100.00
6565;BME280;3316;44.118;27.258;2023-01-30T00:30:51;101667.44;;;1.63;100.00
6565;BME280;3316;44.118;27.258;2023-01-30T00:33:18;101658.69;;;1.61;100.00
6565;BME280;3316;44.118;27.258;2023-01-30T00:35:45;101662.25;;;1.63;100.00
6565;BME280;3316;44.118;27.258;2023-01-30T00:38:10;101649.06;;;1.79;100.00
6565;BME280;3316;44.118;27.258;2023-01-30T00:40:36;101657.19;;;1.87;100.00
6565;BME280;3316;44.118;27.258;2023-01-30T00:43:01;101662.22;;;1.84;100.00
6565;BME280;3316;44.118;27.258;2023-01-30T00:45:46;101656.41;;;1.69;100.00
6565;BME280;3316;44.118;27.258;2023-01-30T00:48:32;101609.50;;;1.42;100.00
6565;BME280;3316;44.118;27.258;2023-01-30T00:50:58;101657.22;;;1.68;100.00
6565;BME280;3316;44.118;27.258;2023-01-30T00:53:23;101647.06;;;1.72;100.00
6565;BME280;3316;44.118;27.258;2023-01-30T00:55:52;101645.47;;;1.55;100.00
6565;BME280;3316;44.118;27.258;2023-01-30T00:58:18;101644.91;;;1.42;100.00
6565;BME280;3316;44.118;27.258;2023-01-30T01:00:45;101656.75;;;1.37;100.00
6565;BME280;3316;44.118;27.258;2023-01-30T01:03:10;101649.66;;;1.33;100.00
6565;BME280;3316;44.118;27.258;2023-01-30T01:05:36;101640.75;;;1.26;100.00
6565;BME280;3316;44.118;27.258;2023-01-30T01:08:02;101633.03;;;1.28;100.00
6565;BME280;3316;44.118;27.258;2023-01-30T01:10:28;101651.47;;;1.34;100.00
6565;BME280;3316;44.118;27.258;2023-01-30T01:12:53;101643.00;;;1.38;100.00
6565;BME280;3316;44.118;27.258;2023-01-30T01:15:20;101636.44;;;1.46;100.00
6565;BME280;3316;44.118;27.258;2023-01-30T01:17:46;101636.97;;;1.39;100.00
6565;BME280;3316;44.118;27.258;2023-01-30T01:20:12;101644.91;;;1.42;100.00
6565;BME280;3316;44.118;27.258;2023-01-30T01:22:38;101632.56;;;1.36;100.00
6565;BME280;3316;44.118;27.258;2023-01-30T01:25:04;101626.69;;;1.40;100.00
6565;BME280;3316;44.118;27.258;2023-01-30T01:27:30;101614.47;;;1.38;100.00
6565;BME280;3316;44.118;27.258;2023-01-30T01:29:55;101613.25;;;1.30;100.00
6565;BME280;3316;44.118;27.258;2023-01-30T01:32:21;101623.50;;;1.47;100.00
6565;BME280;3316;44.118;27.258;2023-01-30T01:34:47;101623.78;;;1.53;100.00
6565;BME280;3316;44.118;27.258;2023-01-30T01:37:12;101618.97;;;1.42;100.00
6565;BME280;3316;44.118;27.258;2023-01-30T01:39:38;101635.22;;;1.38;100.00
6565;BME280;3316;44.118;27.258;2023-01-30T01:42:24;101622.38;;;1.41;100.00
6565;BME280;3316;44.118;27.258;2023-01-30T01:45:10;101604.09;;;1.38;100.00
6565;BME280;3316;44.118;27.258;2023-01-30T01:50:18;101600.75;;;1.40;100.00
6565;BME280;3316;44.118;27.258;2023-01-30T01:52:46;101620.88;;;1.46;100.00
6565;BME280;3316;44.118;27.258;2023-01-30T01:55:14;101629.13;;;1.37;100.00
6565;BME280;3316;44.118;27.258;2023-01-30T01:57:49;101617.16;;;1.20;100.00
6565;BME280;3316;44.118;27.258;2023-01-30T02:00:18;101613.75;;;1.21;100.00
6565;BME280;3316;44.118;27.258;2023-01-30T02:02:56;101627.06;;;1.29;100.00
6565;BME280;3316;44.118;27.258;2023-01-30T02:05:28;101613.84;;;1.23;100.00
6565;BME280;3316;44.118;27.258;2023-01-30T02:08:16;101614.16;;;1.30;100.00
6565;BME280;3316;44.118;27.258;2023-01-30T02:10:52;101629.72;;;1.30;100.00
6565;BME280;3316;44.118;27.258;2023-01-30T02:13:21;101624.59;;;1.32;100.00
6565;BME280;3316;44.118;27.258;2023-01-30T02:15:48;101617.88;;;1.37;100.00
6565;BME280;3316;44.118;27.258;2023-01-30T02:18:14;101622.19;;;1.36;100.00
6565;BME280;3316;44.118;27.258;2023-01-30T02:28:51;101627.38;;;0.97;100.00
6565;BME280;3316;44.118;27.258;2023-01-30T02:40:18;101603.09;;;0.95;100.00
6565;BME280;3316;44.118;27.258;2023-01-30T02:48:42;101623.53;;;1.08;100.00
6565;BME280;3316;44.118;27.258;2023-01-30T02:51:12;101623.53;;;1.08;100.00
6565;BME280;3316;44.118;27.258;2023-01-30T02:53:39;101621.63;;;1.04;100.00
6565;BME280;3316;44.118;27.258;2023-01-30T02:56:05;101607.84;;;1.05;100.00
6565;BME280;3316;44.118;27.258;2023-01-30T02:58:36;101611.13;;;1.01;100.00
6565;BME280;3316;44.118;27.258;2023-01-30T03:06:41;101600.63;;;0.98;100.00
6565;BME280;3316;44.118;27.258;2023-01-30T03:09:29;101604.72;;;0.93;100.00
6565;BME280;3316;44.118;27.258;2023-01-30T03:14:55;101561.44;;;0.71;100.00
6565;BME280;3316;44.118;27.258;2023-01-30T03:17:25;101599.59;;;0.94;100.00
6565;BME280;3316;44.118;27.258;2023-01-30T03:19:53;101604.50;;;0.88;100.00
6565;BME280;3316;44.118;27.258;2023-01-30T03:22:20;101600.22;;;0.88;100.00
6565;BME280;3316;44.118;27.258;2023-01-30T03:24:46;101576.19;;;0.72;100.00
6565;BME280;3316;44.118;27.258;2023-01-30T03:27:12;101584.22;;;0.78;100.00
6565;BME280;3316;44.118;27.258;2023-01-30T03:29:38;101573.88;;;0.78;100.00
6565;BME280;3316;44.118;27.258;2023-01-30T03:32:04;101587.97;;;0.84;100.00
6565;BME280;3316;44.118;27.258;2023-01-30T03:34:30;101532.94;;;0.50;100.00
6565;BME280;3316;44.118;27.258;2023-01-30T03:36:56;101562.06;;;0.65;100.00
6565;BME280;3316;44.118;27.258;2023-01-30T03:39:22;101584.56;;;0.66;100.00
6565;BME280;3316;44.118;27.258;2023-01-30T03:41:48;101579.25;;;0.63;100.00
6565;BME280;3316;44.118;27.258;2023-01-30T03:44:14;101567.66;;;0.55;100.00
6565;BME280;3316;44.118;27.258;2023-01-30T03:46:39;101568.63;;;0.57;100.00
6565;BME280;3316;44.118;27.258;2023-01-30T03:49:05;101558.81;;;0.50;100.00
6565;BME280;3316;44.118;27.258;2023-01-30T03:51:30;101558.31;;;0.59;100.00
6565;BME280;3316;44.118;27.258;2023-01-30T03:53:55;101562.91;;;0.64;100.00
6565;BME280;3316;44.118;27.258;2023-01-30T03:56:21;101550.81;;;0.65;100.00
6565;BME280;3316;44.118;27.258;2023-01-30T03:58:46;101542.88;;;0.60;100.00
6565;BME280;3316;44.118;27.258;2023-01-30T04:01:12;101561.66;;;0.75;100.00
6565;BME280;3316;44.118;27.258;2023-01-30T04:03:37;101504.03;;;0.41;100.00
6565;BME280;3316;44.118;27.258;2023-01-30T04:06:03;101561.59;;;0.74;100.00
6565;BME280;3316;44.118;27.258;2023-01-30T04:08:28;101555.19;;;0.66;100.00
6565;BME280;3316;44.118;27.258;2023-01-30T04:10:54;101559.28;;;0.61;100.00
6565;BME280;3316;44.118;27.258;2023-01-30T04:13:19;101558.59;;;0.65;100.00
6565;BME280;3316;44.118;27.258;2023-01-30T04:15:44;101543.69;;;0.59;100.00
6565;BME280;3316;44.118;27.258;2023-01-30T04:18:10;101552.34;;;0.60;100.00
6565;BME280;3316;44.118;27.258;2023-01-30T04:20:35;101567.25;;;0.65;100.00
6565;BME280;3316;44.118;27.258;2023-01-30T04:23:01;101547.91;;;0.57;100.00
6565;BME280;3316;44.118;27.258;2023-01-30T04:25:26;101552.19;;;0.76;100.00
6565;BME280;3316;44.118;27.258;2023-01-30T04:27:52;101549.84;;;0.82;100.00
6565;BME280;3316;44.118;27.258;2023-01-30T04:30:17;101551.91;;;0.89;100.00
6565;BME280;3316;44.118;27.258;2023-01-30T04:32:43;101534.06;;;0.76;100.00
6565;BME280;3316;44.118;27.258;2023-01-30T04:35:09;101551.41;;;0.78;100.00
6565;BME280;3316;44.118;27.258;2023-01-30T04:37:34;101549.97;;;0.64;100.00
6565;BME280;3316;44.118;27.258;2023-01-30T04:40:00;101540.41;;;0.63;100.00
6565;BME280;3316;44.118;27.258;2023-01-30T04:42:25;101534.47;;;0.66;100.00
6565;BME280;3316;44.118;27.258;2023-01-30T04:44:50;101548.56;;;0.72;100.00
6565;BME280;3316;44.118;27.258;2023-01-30T04:47:16;101548.91;;;0.80;100.00
6565;BME280;3316;44.118;27.258;2023-01-30T04:49:42;101538.97;;;0.70;100.00
6565;BME280;3316;44.118;27.258;2023-01-30T04:52:07;101540.72;;;0.71;100.00
6565;BME280;3316;44.118;27.258;2023-01-30T04:54:33;101522.41;;;0.47;100.00
6565;BME280;3316;44.118;27.258;2023-01-30T04:56:58;101545.47;;;0.60;100.00
6565;BME280;3316;44.118;27.258;2023-01-30T04:59:24;101528.03;;;0.56;100.00
6565;BME280;3316;44.118;27.258;2023-01-30T05:01:49;101534.06;;;0.57;100.00
6565;BME280;3316;44.118;27.258;2023-01-30T05:04:15;101546.88;;;0.54;100.00
6565;BME280;3316;44.118;27.258;2023-01-30T05:06:40;101490.75;;;0.15;100.00
6565;BME280;3316;44.118;27.258;2023-01-30T05:09:06;101538.50;;;0.40;100.00
6565;BME280;3316;44.118;27.258;2023-01-30T05:11:32;101542.84;;;0.41;100.00
6565;BME280;3316;44.118;27.258;2023-01-30T05:13:57;101544.75;;;0.45;100.00
6565;BME280;3316;44.118;27.258;2023-01-30T05:16:23;101549.00;;;0.43;100.00
6565;BME280;3316;44.118;27.258;2023-01-30T05:18:49;101531.50;;;0.38;100.00
6565;BME280;3316;44.118;27.258;2023-01-30T05:21:21;101535.88;;;0.39;100.00
6565;BME280;3316;44.118;27.258;2023-01-30T05:23:47;101538.16;;;0.52;100.00
6565;BME280;3316;44.118;27.258;2023-01-30T05:26:14;101547.00;;;0.57;100.00
6565;BME280;3316;44.118;27.258;2023-01-30T05:28:42;101552.81;;;0.51;100.00
6565;BME280;3316;44.118;27.258;2023-01-30T05:31:12;101552.34;;;0.60;100.00
6565;BME280;3316;44.118;27.258;2023-01-30T05:33:39;101555.41;;;0.51;100.00
6565;BME280;3316;44.118;27.258;2023-01-30T05:36:05;101540.28;;;0.41;100.00
6565;BME280;3316;44.118;27.258;2023-01-30T05:38:31;101544.72;;;0.44;100.00
6565;BME280;3316;44.118;27.258;2023-01-30T05:41:01;101548.19;;;0.44;100.00
6565;BME280;3316;44.118;27.258;2023-01-30T05:43:28;101553.22;;;0.41;100.00
6565;BME280;3316;44.118;27.258;2023-01-30T05:45:55;101561.66;;;0.37;100.00
6565;BME280;3316;44.118;27.258;2023-01-30T05:48:22;101558.09;;;0.35;100.00
6565;BME280;3316;44.118;27.258;2023-01-30T05:50:49;101560.78;;;0.37;100.00
6565;BME280;3316;44.118;27.258;2023-01-30T05:53:15;101513.75;;;0.09;100.00
6565;BME280;3316;44.118;27.258;2023-01-30T05:55:41;101547.56;;;0.31;100.00
6565;BME280;3316;44.118;27.258;2023-01-30T05:58:08;101550.50;;;0.38;100.00
6565;BME280;3316;44.118;27.258;2023-01-30T06:00:33;101549.59;;;0.38;100.00
6565;BME280;3316;44.118;27.258;2023-01-30T06:02:59;101555.75;;;0.40;100.00
6565;BME280;3316;44.118;27.258;2023-01-30T06:05:24;101553.88;;;0.37;100.00
6565;BME280;3316;44.118;27.258;2023-01-30T06:07:50;101534.63;;;0.31;100.00
6565;BME280;3316;44.118;27.258;2023-01-30T06:10:15;101555.06;;;0.44;100.00
6565;BME280;3316;44.118;27.258;2023-01-30T06:12:41;101550.91;;;0.47;100.00
6565;BME280;3316;44.118;27.258;2023-01-30T06:15:07;101552.97;;;0.54;100.00
6565;BME280;3316;44.118;27.258;2023-01-30T06:17:32;101545.88;;;0.50;100.00
6565;BME280;3316;44.118;27.258;2023-01-30T06:19:58;101541.50;;;0.49;100.00
6565;BME280;3316;44.118;27.258;2023-01-30T06:22:23;101530.19;;;0.47;100.00
6565;BME280;3316;44.118;27.258;2023-01-30T06:24:49;101511.31;;;0.50;100.00
6565;BME280;3316;44.118;27.258;2023-01-30T06:27:14;101541.47;;;0.68;100.00
6565;BME280;3316;44.118;27.258;2023-01-30T06:29:39;101539.47;;;0.82;100.00
6565;BME280;3316;44.118;27.258;2023-01-30T06:32:05;101540.53;;;0.85;100.00
6565;BME280;3316;44.118;27.258;2023-01-30T06:34:30;101540.00;;;0.94;100.00
6565;BME280;3316;44.118;27.258;2023-01-30T06:36:56;101530.47;;;0.93;100.00
6565;BME280;3316;44.118;27.258;2023-01-30T06:39:21;101538.66;;;1.23;100.00
6565;BME280;3316;44.118;27.258;2023-01-30T06:41:46;101534.66;;;1.31;100.00
6565;BME280;3316;44.118;27.258;2023-01-30T06:44:12;101500.72;;;1.04;100.00
6565;BME280;3316;44.118;27.258;2023-01-30T06:46:37;101537.75;;;1.43;100.00
6565;BME280;3316;44.118;27.258;2023-01-30T06:49:03;101544.38;;;1.57;100.00
6565;BME280;3316;44.118;27.258;2023-01-30T06:51:28;101425.00;;;0.90;100.00
6565;BME280;3316;44.118;27.258;2023-01-30T06:53:54;101540.25;;;1.62;100.00
6565;BME280;3316;44.118;27.258;2023-01-30T06:56:20;101523.63;;;1.57;100.00
6565;BME280;3316;44.118;27.258;2023-01-30T06:58:45;101548.72;;;1.78;100.00
6565;BME280;3316;44.118;27.258;2023-01-30T07:01:11;101543.00;;;1.87;100.00
6565;BME280;3316;44.118;27.258;2023-01-30T07:03:36;101530.75;;;1.83;100.00
6565;BME280;3316;44.118;27.258;2023-01-30T07:06:02;101542.59;;;1.99;100.00
6565;BME280;3316;44.118;27.258;2023-01-30T07:08:27;101542.19;;;2.10;100.00
6565;BME280;3316;44.118;27.258;2023-01-30T07:10:53;101545.66;;;2.34;100.00
6565;BME280;3316;44.118;27.258;2023-01-30T07:13:19;101545.31;;;2.47;100.00
6565;BME280;3316;44.118;27.258;2023-01-30T07:15:44;101537.56;;;2.25;100.00
6565;BME280;3316;44.118;27.258;2023-01-30T07:18:10;101531.88;;;2.13;100.00
6565;BME280;3316;44.118;27.258;2023-01-30T07:20:36;101535.56;;;1.96;100.00
6565;BME280;3316;44.118;27.258;2023-01-30T07:23:02;101540.16;;;2.03;100.00
6565;BME280;3316;44.118;27.258;2023-01-30T07:25:28;101535.13;;;1.86;100.00
6565;BME280;3316;44.118;27.258;2023-01-30T07:27:58;101499.88;;;1.68;100.00
6565;BME280;3316;44.118;27.258;2023-01-30T07:30:25;101545.00;;;1.94;100.00
6565;BME280;3316;44.118;27.258;2023-01-30T07:32:55;101550.38;;;1.99;100.00
6565;BME280;3316;44.118;27.258;2023-01-30T07:35:22;101522.16;;;1.86;100.00
6565;BME280;3316;44.118;27.258;2023-01-30T07:37:48;101536.72;;;1.82;100.00
6565;BME280;3316;44.118;27.258;2023-01-30T07:40:14;101536.16;;;1.89;100.00
6565;BME280;3316;44.118;27.258;2023-01-30T07:42:40;101546.03;;;1.99;100.00
6565;BME280;3316;44.118;27.258;2023-01-30T07:45:06;101525.13;;;1.95;100.00
6565;BME280;3316;44.118;27.258;2023-01-30T07:47:32;101537.44;;;2.22;100.00
6565;BME280;3316;44.118;27.258;2023-01-30T07:49:57;101538.00;;;2.37;100.00
6565;BME280;3316;44.118;27.258;2023-01-30T07:52:22;101522.75;;;2.46;100.00
6565;BME280;3316;44.118;27.258;2023-01-30T07:54:48;101534.69;;;2.65;100.00
6565;BME280;3316;44.118;27.258;2023-01-30T07:57:13;101529.38;;;2.86;100.00
6565;BME280;3316;44.118;27.258;2023-01-30T07:59:39;101513.03;;;2.90;100.00
6565;BME280;3316;44.118;27.258;2023-01-30T08:02:05;101528.41;;;2.84;100.00
6565;BME280;3316;44.118;27.258;2023-01-30T08:04:30;101528.53;;;2.87;100.00
6565;BME280;3316;44.118;27.258;2023-01-30T08:06:56;101527.19;;;2.98;100.00
6565;BME280;3316;44.118;27.258;2023-01-30T08:09:21;101519.59;;;3.04;100.00
6565;BME280;3316;44.118;27.258;2023-01-30T08:11:47;101508.56;;;2.86;100.00
6565;BME280;3316;44.118;27.258;2023-01-30T08:14:12;101500.47;;;3.02;100.00
6565;BME280;3316;44.118;27.258;2023-01-30T08:16:38;101496.25;;;3.05;100.00
6565;BME280;3316;44.118;27.258;2023-01-30T08:19:04;101507.13;;;2.94;100.00
6565;BME280;3316;44.118;27.258;2023-01-30T08:21:30;101514.94;;;3.20;100.00
6565;BME280;3316;44.118;27.258;2023-01-30T08:23:56;101515.69;;;3.16;100.00
6565;BME280;3316;44.118;27.258;2023-01-30T08:26:21;101505.41;;;3.19;100.00
6565;BME280;3316;44.118;27.258;2023-01-30T08:28:46;101510.66;;;2.96;100.00
6565;BME280;3316;44.118;27.258;2023-01-30T08:31:13;101506.53;;;2.77;100.00
6565;BME280;3316;44.118;27.258;2023-01-30T08:33:39;101457.72;;;2.43;100.00
6565;BME280;3316;44.118;27.258;2023-01-30T08:36:05;101477.44;;;2.38;100.00
6565;BME280;3316;44.118;27.258;2023-01-30T08:38:30;101494.63;;;2.58;100.00
6565;BME280;3316;44.118;27.258;2023-01-30T08:40:56;101491.78;;;2.76;100.00
6565;BME280;3316;44.118;27.258;2023-01-30T08:43:22;101483.09;;;3.01;100.00
6565;BME280;3316;44.118;27.258;2023-01-30T08:45:48;101476.94;;;2.99;100.00
6565;BME280;3316;44.118;27.258;2023-01-30T08:48:14;101459.16;;;3.11;100.00
6565;BME280;3316;44.118;27.258;2023-01-30T08:50:39;101481.94;;;2.93;100.00
6565;BME280;3316;44.118;27.258;2023-01-30T08:53:07;101476.66;;;2.90;100.00
6565;BME280;3316;44.118;27.258;2023-01-30T08:55:34;101478.09;;;3.07;100.00
6565;BME280;3316;44.118;27.258;2023-01-30T08:57:59;101455.00;;;2.91;100.00
6565;BME280;3316;44.118;27.258;2023-01-30T09:00:26;101470.69;;;2.92;100.00
6565;BME280;3316;44.118;27.258;2023-01-30T09:02:56;101456.28;;;3.02;100.00
6565;BME280;3316;44.118;27.258;2023-01-30T09:05:22;101449.00;;;2.92;100.00
6565;BME280;3316;44.118;27.258;2023-01-30T09:07:48;101455.13;;;2.94;100.00
6565;BME280;3316;44.118;27.258;2023-01-30T09:10:14;101439.00;;;3.04;100.00
6565;BME280;3316;44.118;27.258;2023-01-30T09:12:40;101448.38;;;3.25;100.00
6565;BME280;3316;44.118;27.258;2023-01-30T09:15:06;101439.25;;;3.38;100.00
6565;BME280;3316;44.118;27.258;2023-01-30T09:17:32;101432.66;;;3.49;100.00
6565;BME280;3316;44.118;27.258;2023-01-30T09:19:57;101406.41;;;3.70;100.00
6565;BME280;3316;44.118;27.258;2023-01-30T09:22:23;101435.50;;;4.16;100.00
6565;BME280;3316;44.118;27.258;2023-01-30T09:24:48;101420.47;;;4.37;100.00
6565;BME280;3316;44.118;27.258;2023-01-30T09:27:14;101420.91;;;4.52;100.00
6565;BME280;3316;44.118;27.258;2023-01-30T09:29:39;101422.66;;;4.53;100.00
6565;BME280;3316;44.118;27.258;2023-01-30T09:32:04;101420.13;;;4.56;100.00
6565;BME280;3316;44.118;27.258;2023-01-30T09:34:30;101378.16;;;4.45;100.00
6565;BME280;3316;44.118;27.258;2023-01-30T09:36:56;101411.09;;;4.76;100.00
6565;BME280;3316;44.118;27.258;2023-01-30T09:39:24;101395.69;;;4.85;100.00
6565;BME280;3316;44.118;27.258;2023-01-30T09:56:15;101383.25;;;14.07;48.50
6565;BME280;3316;44.118;27.258;2023-01-30T09:58:53;101381.44;;;13.33;50.07
6565;BME280;3316;44.118;27.258;2023-01-30T10:06:33;101365.56;;;13.34;49.46
6565;BME280;3316;44.118;27.258;2023-01-30T10:12:30;101364.19;;;12.88;47.63
6565;BME280;3316;44.118;27.258;2023-01-30T10:20:39;101318.06;;;13.27;46.99
6565;BME280;3316;44.118;27.258;2023-01-30T10:25:54;101326.50;;;12.68;49.11
6565;BME280;3316;44.118;27.258;2023-01-30T10:31:21;101314.06;;;12.85;48.04
6565;BME280;3316;44.118;27.258;2023-01-30T10:39:00;101302.97;;;12.35;50.60
6565;BME280;3316;44.118;27.258;2023-01-30T10:41:40;101294.94;;;12.53;50.41
6565;BME280;3316;44.118;27.258;2023-01-30T10:44:10;101287.56;;;12.90;49.78
6565;BME280;3316;44.118;27.258;2023-01-30T10:46:47;101284.34;;;12.56;49.20
6565;BME280;3316;44.118;27.258;2023-01-30T11:00:16;101255.22;;;11.00;53.80
6565;BME280;3316;44.118;27.258;2023-01-30T11:03:07;101243.91;;;10.38;56.01
6565;BME280;3316;44.118;27.258;2023-01-30T11:10:44;101227.25;;;10.51;60.04
6565;BME280;3316;44.118;27.258;2023-01-30T11:13:38;101215.63;;;9.39;60.83
6565;BME280;3316;44.118;27.258;2023-01-30T11:16:05;101164.56;;;8.72;67.16
6565;BME280;3316;44.118;27.258;2023-01-30T11:18:32;101203.03;;;8.65;70.03
6565;BME280;3316;44.118;27.258;2023-01-30T11:21:13;101158.50;;;7.66;80.72
6565;BME280;3316;44.118;27.258;2023-01-30T11:23:43;101184.34;;;7.36;86.75
6565;BME280;3316;44.118;27.258;2023-01-30T11:26:22;101176.81;;;6.93;94.95
6565;BME280;3316;44.118;27.258;2023-01-30T11:28:47;101184.59;;;6.28;100.00
6565;BME280;3316;44.118;27.258;2023-01-30T11:31:19;101177.22;;;6.03;100.00
6565;BME280;3316;44.118;27.258;2023-01-30T11:33:45;101157.28;;;5.58;100.00
6565;BME280;3316;44.118;27.258;2023-01-30T11:36:27;101166.19;;;5.70;100.00
6565;BME280;3316;44.118;27.258;2023-01-30T11:39:03;101145.66;;;5.42;100.00
6565;BME280;3316;44.118;27.258;2023-01-30T11:41:58;101158.25;;;5.66;100.00
6565;BME280;3316;44.118;27.258;2023-01-30T11:44:36;101143.03;;;5.88;100.00
6565;BME280;3316;44.118;27.258;2023-01-30T11:47:12;101104.91;;;5.99;100.00
6565;BME280;3316;44.118;27.258;2023-01-30T11:49:45;101132.19;;;6.18;100.00
6565;BME280;3316;44.118;27.258;2023-01-30T11:52:12;101129.75;;;6.30;100.00
6565;BME280;3316;44.118;27.258;2023-01-30T11:54:42;101134.31;;;5.89;100.00
6565;BME280;3316;44.118;27.258;2023-01-30T11:57:16;101126.75;;;5.55;100.00
6565;BME280;3316;44.118;27.258;2023-01-30T11:59:53;101125.22;;;5.20;100.00
6565;BME280;3316;44.118;27.258;2023-01-30T12:02:30;101110.41;;;5.17;100.00
6565;BME280;3316;44.118;27.258;2023-01-30T12:05:32;101122.00;;;5.33;100.00
6565;BME280;3316;44.118;27.258;2023-01-30T12:10:51;101040.22;;;4.83;100.00
6565;BME280;3316;44.118;27.258;2023-01-30T12:13:39;101101.63;;;5.14;100.00
6565;BME280;3316;44.118;27.258;2023-01-30T12:19:05;101098.97;;;4.68;100.00
6565;BME280;3316;44.118;27.258;2023-01-30T12:32:47;101073.34;;;4.89;100.00
6565;BME280;3316;44.118;27.258;2023-01-30T12:35:17;101076.78;;;4.88;100.00
6565;BME280;3316;44.118;27.258;2023-01-30T12:40:30;101075.03;;;5.33;100.00
6565;BME280;3316;44.118;27.258;2023-01-30T12:43:13;101060.25;;;5.32;100.00
6565;BME280;3316;44.118;27.258;2023-01-30T12:51:20;101054.47;;;4.59;100.00
6565;BME280;3316;44.118;27.258;2023-01-30T12:59:32;101028.72;;;4.30;100.00
6565;BME280;3316;44.118;27.258;2023-01-30T13:02:05;101042.63;;;4.31;100.00
6565;BME280;3316;44.118;27.258;2023-01-30T13:07:23;101038.69;;;4.11;100.00
6565;BME280;3316;44.118;27.258;2023-01-30T13:13:02;101025.03;;;4.21;100.00
6565;BME280;3316;44.118;27.258;2023-01-30T13:15:43;101027.19;;;4.41;100.00
6565;BME280;3316;44.118;27.258;2023-01-30T13:18:14;101012.06;;;4.24;100.00
6565;BME280;3316;44.118;27.258;2023-01-30T13:24:04;101001.00;;;4.35;100.00
6565;BME280;3316;44.118;27.258;2023-01-30T13:26:15;101018.19;;;4.69;100.00
6565;BME280;3316;44.118;27.258;2023-01-30T13:28:48;101017.28;;;4.66;100.00
6565;BME280;3316;44.118;27.258;2023-01-30T13:31:21;100978.56;;;4.40;100.00
6565;BME280;3316;44.118;27.258;2023-01-30T13:33:50;101007.50;;;4.56;100.00
6565;BME280;3316;44.118;27.258;2023-01-30T13:36:22;101004.94;;;4.59;100.00
6565;BME280;3316;44.118;27.258;2023-01-30T13:39:01;100995.53;;;4.23;100.00
6565;BME280;3316;44.118;27.258;2023-01-30T13:41:41;101004.59;;;3.63;100.00
6565;BME280;3316;44.118;27.258;2023-01-30T13:44:28;100994.44;;;3.36;100.00
6565;BME280;3316;44.118;27.258;2023-01-30T13:52:33;100942.13;;;2.89;100.00
6565;BME280;3316;44.118;27.258;2023-01-30T13:55:28;100968.50;;;3.04;100.00
6565;BME280;3316;44.118;27.258;2023-01-30T14:00:53;100953.84;;;3.07;100.00
6565;BME280;3316;44.118;27.258;2023-01-30T14:03:26;100965.28;;;3.14;100.00
6565;BME280;3316;44.118;27.258;2023-01-30T14:11:27;100947.56;;;2.99;100.00
6565;BME280;3316;44.118;27.258;2023-01-30T14:14:00;100951.81;;;2.96;100.00
6565;BME280;3316;44.118;27.258;2023-01-30T14:16:44;100939.25;;;2.78;100.00
6565;BME280;3316;44.118;27.258;2023-01-30T14:19:31;100947.06;;;2.80;100.00
6565;BME280;3316;44.118;27.258;2023-01-30T14:21:59;100950.56;;;2.80;100.00
6565;BME280;3316;44.118;27.258;2023-01-30T14:24:26;100930.41;;;2.71;100.00
6565;BME280;3316;44.118;27.258;2023-01-30T14:27:00;100933.06;;;2.73;100.00
6565;BME280;3316;44.118;27.258;2023-01-30T14:39:53;100935.16;;;2.53;100.00
6565;BME280;3316;44.118;27.258;2023-01-30T14:42:27;100938.34;;;2.43;100.00
6565;BME280;3316;44.118;27.258;2023-01-30T14:45:13;100924.22;;;2.34;100.00
6565;BME280;3316;44.118;27.258;2023-01-30T14:47:38;100934.59;;;2.34;100.00
6565;BME280;3316;44.118;27.258;2023-01-30T14:50:20;100939.72;;;2.32;100.00
6565;BME280;3316;44.118;27.258;2023-01-30T14:52:47;100938.00;;;2.31;100.00
6565;BME280;3316;44.118;27.258;2023-01-30T14:55:20;100941.31;;;2.26;100.00
6565;BME280;3316;44.118;27.258;2023-01-30T14:58:14;100934.38;;;2.26;100.00
6565;BME280;3316;44.118;27.258;2023-01-30T15:00:42;100933.56;;;2.27;100.00
6565;BME280;3316;44.118;27.258;2023-01-30T15:03:15;100928.16;;;2.20;100.00
6565;BME280;3316;44.118;27.258;2023-01-30T15:05:44;100935.16;;;2.22;100.00
6565;BME280;3316;44.118;27.258;2023-01-30T15:08:19;100918.91;;;2.00;100.00
6565;BME280;3316;44.118;27.258;2023-01-30T15:13:35;100930.69;;;1.87;100.00
6565;BME280;3316;44.118;27.258;2023-01-30T15:16:11;100935.88;;;1.87;100.00
6565;BME280;3316;44.118;27.258;2023-01-30T15:30:44;100924.38;;;1.51;100.00
6565;BME280;3316;44.118;27.258;2023-01-30T15:33:18;100925.06;;;1.45;100.00
6565;BME280;3316;44.118;27.258;2023-01-30T15:35:44;100902.25;;;1.34;100.00
6565;BME280;3316;44.118;27.258;2023-01-30T15:38:30;100925.03;;;1.44;100.00
6565;BME280;3316;44.118;27.258;2023-01-30T15:41:04;100930.97;;;1.40;100.00
6565;BME280;3316;44.118;27.258;2023-01-30T15:46:24;100929.53;;;0.96;100.00
6565;BME280;3316;44.118;27.258;2023-01-30T15:51:43;100912.97;;;0.64;100.00
6565;BME280;3316;44.118;27.258;2023-01-30T15:54:13;100924.81;;;0.58;100.00
6565;BME280;3316;44.118;27.258;2023-01-30T15:56:40;100909.88;;;0.51;100.00
6565;BME280;3316;44.118;27.258;2023-01-30T15:59:06;100914.28;;;0.53;100.00
6565;BME280;3316;44.118;27.258;2023-01-30T16:01:32;100906.47;;;0.52;100.00
6565;BME280;3316;44.118;27.258;2023-01-30T16:03:58;100904.81;;;0.54;100.00